createdAt,value
2023-03-18T00:00:35.886Z,17.9
2023-03-18T00:06:28.471Z,17.8
2023-03-18T00:12:06.727Z,17.7
2023-03-18T00:16:56.883Z,17.4
2023-03-18T00:22:18.572Z,17.4
2023-03-18T00:28:11.169Z,17.3
2023-03-18T00:33:48.190Z,19.2
2023-03-18T00:39:41.373Z,20.5
2023-03-18T00:45:35.497Z,19.3
2023-03-18T00:50:57.023Z,18.5
2023-03-18T00:56:34.781Z,18
2023-03-18T01:02:28.629Z,17.8
2023-03-18T01:08:06.108Z,17.6
2023-03-18T01:13:46.661Z,17.5
2023-03-18T01:19:39.818Z,17.3
2023-03-18T01:25:01.570Z,18.9
2023-03-18T01:30:38.682Z,20.3
2023-03-18T01:36:31.417Z,19.9
2023-03-18T01:42:23.517Z,18.8
2023-03-18T01:48:00.988Z,18.1
2023-03-18T01:53:22.935Z,17.7
2023-03-18T01:59:15.476Z,17.6
2023-03-18T02:05:08.083Z,17.3
2023-03-18T02:11:02.097Z,17.3
2023-03-18T02:16:39.266Z,17.3
2023-03-18T02:22:00.803Z,19.6
2023-03-18T02:27:39.211Z,20.4
2023-03-18T02:33:31.794Z,19.3
2023-03-18T02:39:25.188Z,18.6
2023-03-18T02:45:18.249Z,17.8
2023-03-18T02:51:09.985Z,17.6
2023-03-18T02:57:02.657Z,17.4
2023-03-18T03:02:09.510Z,17.3
2023-03-18T03:07:47.774Z,17.2
2023-03-18T03:13:24.416Z,18.5
2023-03-18T03:19:01.438Z,19.9
2023-03-18T03:24:54.734Z,20.4
2023-03-18T03:30:47.431Z,19.1
2023-03-18T03:36:09.243Z,18.4
2023-03-18T03:42:01.986Z,17.8
2023-03-18T03:47:55.317Z,17.5
2023-03-18T03:53:32.863Z,17.3
2023-03-18T03:59:09.966Z,17.2
2023-03-18T04:10:09.342Z,18.9
2023-03-18T04:16:02.450Z,18.3
2023-03-18T04:21:25.039Z,18.1
2023-03-18T04:27:01.679Z,19.8
2023-03-18T04:32:54.490Z,20.5
2023-03-18T04:38:47.137Z,19
2023-03-18T04:44:40.457Z,18.2
2023-03-18T04:50:33.898Z,17.6
2023-03-18T04:56:11.259Z,17.4
2023-03-18T05:01:52.271Z,17.2
2023-03-18T05:07:45.258Z,17.1
2023-03-18T05:13:37.449Z,16.9
2023-03-18T05:18:59.007Z,19.4
2023-03-18T05:24:51.441Z,20.1
2023-03-18T05:30:44.271Z,20
2023-03-18T05:36:38.779Z,18.6
2023-03-18T05:42:30.918Z,17.9
2023-03-18T05:48:32.075Z,17.4
2023-03-18T05:54:25.317Z,17.3
2023-03-18T06:05:26.822Z,16.9
2023-03-18T06:11:21.587Z,17.9
2023-03-18T06:17:14.644Z,19.6
2023-03-18T06:22:53.189Z,20.1
2023-03-18T06:28:45.792Z,20.1
2023-03-18T06:34:39.986Z,18.6
2023-03-18T06:40:32.153Z,17.9
2023-03-18T06:46:25.712Z,17.4
2023-03-18T06:52:20.251Z,17.3
2023-03-18T06:58:12.132Z,16.9
2023-03-18T07:03:49.491Z,16.9
2023-03-18T07:09:42.808Z,18
2023-03-18T07:15:34.635Z,19.4
2023-03-18T07:21:31.258Z,18.8
2023-03-18T07:26:54.763Z,16
2023-03-18T07:32:50.948Z,19.2
2023-03-18T07:38:44.656Z,20.4
2023-03-18T07:44:39.631Z,19.2
2023-03-18T07:50:32.422Z,18.1
2023-03-18T07:56:25.571Z,17.4
2023-03-18T08:02:23.459Z,17.3
2023-03-18T08:08:01.554Z,17.1
2023-03-18T08:14:14.866Z,18.2
2023-03-18T08:20:08.045Z,20.1
2023-03-18T08:26:00.682Z,20.1
2023-03-18T08:31:54.829Z,18.5
2023-03-18T08:37:50.719Z,17.9
2023-03-18T08:43:27.116Z,17.6
2023-03-18T08:49:20.349Z,17.3
2023-03-18T08:54:57.200Z,19.8
2023-03-18T09:00:34.223Z,20.7
2023-03-18T09:05:56.858Z,18.6
2023-03-18T09:11:56.482Z,18
2023-03-18T09:18:12.610Z,17.6
2023-03-18T09:24:08.272Z,19.4
2023-03-18T09:30:00.930Z,21
2023-03-18T09:35:53.967Z,18.9
2023-03-18T09:41:47.911Z,18.1
2023-03-18T09:47:41.072Z,17.6
2023-03-18T09:53:33.577Z,20.3
2023-03-18T09:59:10.992Z,19.9
2023-03-18T10:05:03.778Z,18.4
2023-03-18T10:10:40.253Z,17.9
2023-03-18T10:16:17.851Z,18.8
2023-03-18T10:22:11.922Z,21
2023-03-18T10:28:15.374Z,19
2023-03-18T10:34:26.569Z,18.1
2023-03-18T10:40:04.904Z,17.7
2023-03-18T10:45:56.784Z,20.1
2023-03-18T10:51:50.431Z,20.2
2023-03-18T10:57:42.840Z,18.6
2023-03-18T11:03:35.648Z,17.9
2023-03-18T11:09:28.763Z,17.9
2023-03-18T11:15:22.004Z,20.8
2023-03-18T11:21:14.969Z,19.4
2023-03-18T11:27:08.075Z,18.1
2023-03-18T11:33:10.962Z,17.8
2023-03-18T11:39:05.201Z,19.3
2023-03-18T11:45:02.558Z,20.8
2023-03-18T11:50:40.115Z,18.8
2023-03-18T11:56:02.272Z,18.1
2023-03-18T12:01:25.192Z,17.8
2023-03-18T12:06:47.206Z,20.3
2023-03-18T12:12:42.480Z,20.3
2023-03-18T12:18:37.190Z,18.6
2023-03-18T12:24:15.078Z,18
2023-03-18T12:29:36.847Z,17.8
2023-03-18T12:35:15.999Z,20.8
2023-03-18T12:41:10.206Z,19.7
2023-03-18T12:47:03.019Z,18.5
2023-03-18T12:52:52.342Z,18.1
2023-03-18T12:58:45.819Z,18.6
2023-03-18T13:04:28.881Z,21.3
2023-03-18T13:10:06.677Z,19.2
2023-03-18T13:16:02.946Z,18.4
2023-03-18T13:21:41.138Z,18
2023-03-18T13:27:34.861Z,19.6
2023-03-18T13:33:28.713Z,20.8
2023-03-18T13:39:23.318Z,18.9
2023-03-18T13:45:16.317Z,18.3
2023-03-18T13:50:55.047Z,17.9
2023-03-18T13:56:47.198Z,20
2023-03-18T14:02:41.466Z,20.4
2023-03-18T14:08:35.500Z,18.8
2023-03-18T14:14:44.181Z,18.3
2023-03-18T14:20:25.424Z,17.9
2023-03-18T14:25:49.571Z,17.6
2023-03-18T14:31:11.320Z,17.4
2023-03-18T14:36:48.770Z,17.1
2023-03-18T14:42:44.654Z,16.9
2023-03-18T14:48:30.014Z,16.7
2023-03-18T14:54:07.319Z,16.5
2023-03-18T14:59:59.743Z,16.4
2023-03-18T15:05:52.519Z,16.2
2023-03-18T15:11:43.346Z,16.1
2023-03-18T15:17:20.308Z,15.9
2023-03-18T15:23:13.181Z,15.8
2023-03-18T15:28:50.705Z,15.6
2023-03-18T15:34:43.816Z,15.6
2023-03-18T15:40:36.952Z,15.4
2023-03-18T15:46:14.324Z,15.4
2023-03-18T15:52:07.570Z,15.3
2023-03-18T15:57:45.662Z,15.1
2023-03-18T16:03:37.965Z,15.1
2023-03-18T16:09:30.705Z,15.1
2023-03-18T16:15:23.741Z,14.9
2023-03-18T16:21:01.196Z,14.9
2023-03-18T16:26:54.897Z,14.8
2023-03-18T16:32:47.234Z,14.8
2023-03-18T16:38:24.999Z,14.7
2023-03-18T16:44:02.540Z,14.7
2023-03-18T16:49:40.227Z,14.7
2023-03-18T16:55:32.398Z,14.8
2023-03-18T17:01:09.700Z,14.8
2023-03-18T17:06:47.889Z,14.9
2023-03-18T17:12:40.689Z,15
2023-03-18T17:18:20.225Z,15.3
2023-03-18T17:24:12.505Z,15.5
2023-03-18T17:29:49.855Z,15.8
2023-03-18T17:35:45.524Z,15.9
2023-03-18T17:41:23.222Z,16.3
2023-03-18T17:47:01.058Z,16.3
2023-03-18T17:52:53.665Z,16.3
2023-03-18T17:58:30.482Z,16.4
2023-03-18T18:04:24.178Z,16.5
2023-03-18T18:09:45.937Z,16.6
2023-03-18T18:15:23.029Z,16.6
2023-03-18T18:21:18.837Z,16.8
2023-03-18T18:26:57.343Z,16.9
2023-03-18T18:32:38.385Z,16.9
2023-03-18T18:38:00.735Z,16.9
2023-03-18T18:43:53.952Z,16.9
2023-03-18T18:55:09.231Z,17.1
2023-03-18T19:01:03.147Z,17.2
2023-03-18T19:06:41.378Z,17.1
2023-03-18T19:12:34.417Z,17.2
2023-03-18T19:18:13.080Z,17.3
2023-03-18T19:24:05.148Z,17.4
2023-03-18T19:29:50.083Z,17.4
2023-03-18T19:35:43.254Z,17.4
2023-03-18T19:41:21.026Z,17.4
2023-03-18T19:47:15.495Z,17.5
2023-03-18T19:52:55.369Z,17.4
2023-03-18T19:58:47.738Z,17.4
2023-03-18T20:04:44.468Z,17.4
2023-03-18T20:10:37.740Z,17.3
2023-03-18T20:16:30.465Z,17.3
2023-03-18T20:22:23.622Z,17.2
2023-03-18T20:28:00.547Z,17.1
2023-03-18T20:33:23.375Z,17.1
2023-03-18T20:38:45.757Z,16.9
2023-03-18T20:43:52.214Z,16.9
2023-03-18T20:49:30.129Z,16.8
2023-03-18T20:55:22.862Z,16.7
2023-03-18T21:01:00.212Z,16.6
2023-03-18T21:06:53.694Z,16.4
2023-03-18T21:12:31.697Z,16.4
2023-03-18T21:18:25.157Z,18
2023-03-18T21:24:30.808Z,19
2023-03-18T21:30:38.701Z,18.8
2023-03-18T21:36:19.848Z,18.6
2023-03-18T21:42:12.441Z,18.4
2023-03-18T21:47:50.507Z,18.3
2023-03-18T21:53:57.236Z,18.1
2023-03-18T21:59:49.913Z,17.9
2023-03-18T22:05:43.397Z,17.9
2023-03-18T22:11:19.937Z,17.8
2023-03-18T22:16:41.632Z,17.8
2023-03-18T22:22:35.104Z,17.6
2023-03-18T22:27:41.777Z,17.6
2023-03-18T22:33:19.609Z,17.6
2023-03-18T22:39:13.421Z,17.4
2023-03-18T22:45:05.278Z,18.8
2023-03-18T22:50:45.232Z,20.8
2023-03-18T22:56:22.455Z,19.4
2023-03-18T23:02:17.470Z,18.8
2023-03-18T23:07:40.400Z,18.3
2023-03-18T23:13:46.944Z,18.1
2023-03-18T23:19:40.675Z,17.9
2023-03-18T23:25:33.930Z,17.8
2023-03-18T23:31:30.629Z,17.6
2023-03-18T23:36:37.974Z,17.5
2023-03-18T23:42:31.082Z,17.3
2023-03-18T23:48:26.249Z,19.8
2023-03-18T23:54:19.317Z,20.4
